Time;durP1;ratioP1;P1;durP2;ratioP2;P2;SDS_P1;SDS_P2;PMS_P1;PMS_P2;Temp;Humidity;BMP_temperature;BMP_pressure;BME280_temperature;BME280_humidity;BME280_pressure;Samples;Min_cycle;Max_cycle;Signal;HPM_P1;HPM_P2
2020/12/07 00:02:44;;;;;;;17.70;9.25;;;;;;;-9.07;70.34;101824.11;1769486;81;21225;-78
2020/12/07 00:05:51;;;;;;;28.32;12.73;;;;;;;-9.12;70.58;101824.61;1760557;81;21308;-78
2020/12/07 00:08:59;;;;;;;22.95;11.30;;;;;;;-9.15;70.82;101820.65;1759037;81;21312;-78
2020/12/07 00:12:05;;;;;;;20.95;9.05;;;;;;;-9.18;70.92;101821.11;1759085;81;21198;-79
2020/12/07 00:15:12;;;;;;;22.27;9.45;;;;;;;-9.21;71.02;101818.06;1760559;81;21300;-79
2020/12/07 00:18:18;;;;;;;24.00;11.25;;;;;;;-9.25;71.15;101815.01;1765458;80;21353;-79
2020/12/07 00:21:25;;;;;;;25.10;9.95;;;;;;;-9.29;71.27;101807.97;1769289;81;21356;-78
2020/12/07 00:24:30;;;;;;;17.25;8.85;;;;;;;-9.32;71.35;101785.47;1768978;81;21293;-78
2020/12/07 00:27:39;;;;;;;21.60;9.03;;;;;;;-9.36;71.53;101785.97;1768889;81;21297;-78
2020/12/07 00:30:46;;;;;;;27.77;9.10;;;;;;;-9.40;71.71;101806.76;1767996;81;21348;-78
2020/12/07 00:33:57;;;;;;;26.27;11.28;;;;;;;-9.45;72.00;101800.63;1768316;80;21335;-78
2020/12/07 00:37:00;;;;;;;22.67;10.50;;;;;;;-9.47;72.09;101790.91;1769061;81;21270;-78
2020/12/07 00:40:06;;;;;;;30.43;10.65;;;;;;;-9.46;71.92;101796.64;1768496;81;21824;-78
2020/12/07 00:43:12;;;;;;;28.30;12.00;;;;;;;-9.43;71.67;101806.77;1769585;81;21341;-78
2020/12/07 00:46:18;;;;;;;30.88;11.12;;;;;;;-9.40;71.82;101813.38;1768132;81;21293;-79
2020/12/07 00:49:23;;;;;;;27.93;11.30;;;;;;;-9.41;71.86;101800.13;1768747;81;21376;-79
2020/12/07 00:52:29;;;;;;;29.90;10.55;;;;;;;-9.44;72.00;101785.15;1769341;81;21168;-79
2020/12/07 00:55:36;;;;;;;25.48;10.43;;;;;;;-9.46;72.09;101785.59;1776458;80;21397;-79
2020/12/07 00:58:41;;;;;;;20.72;9.23;;;;;;;-9.46;72.25;101790.89;1784973;80;21293;-79
2020/12/07 01:01:46;;;;;;;28.45;10.08;;;;;;;-9.47;72.37;101786.49;1784495;80;21365;-79
2020/12/07 01:04:53;;;;;;;17.35;8.83;;;;;;;-9.49;72.50;101787.41;1784475;79;21822;-79
2020/12/07 01:07:59;;;;;;;25.85;9.95;;;;;;;-9.50;72.59;101804.18;1757783;80;21306;-79
2020/12/07 01:11:04;;;;;;;24.18;9.08;;;;;;;-9.49;72.58;101796.69;1783075;80;22088;-79
2020/12/07 01:14:10;;;;;;;27.60;10.93;;;;;;;-9.49;72.60;101778.14;1784879;80;21880;-79
2020/12/07 01:17:16;;;;;;;16.80;7.37;;;;;;;-9.53;72.75;101791.41;1784649;80;21344;-77
2020/12/07 01:20:24;;;;;;;26.05;9.53;;;;;;;-9.52;72.83;101781.69;1783786;79;21340;-77
2020/12/07 01:23:30;;;;;;;22.98;9.03;;;;;;;-9.53;72.81;101786.56;1784589;80;21297;-77
2020/12/07 01:26:39;;;;;;;20.25;9.60;;;;;;;-9.54;72.80;101771.11;1783696;80;21225;-77
2020/12/07 01:29:45;;;;;;;17.82;8.10;;;;;;;-9.54;72.81;101784.81;1783730;80;21322;-77
2020/12/07 01:32:51;;;;;;;24.43;9.63;;;;;;;-9.54;72.85;101772.44;1795590;79;21303;-77
2020/12/07 01:35:56;;;;;;;30.48;10.32;;;;;;;-9.57;72.94;101785.70;1817266;79;21838;-77
2020/12/07 01:39:01;;;;;;;25.60;9.43;;;;;;;-9.57;73.02;101775.10;1816874;79;21826;-77
2020/12/07 01:42:08;;;;;;;19.77;9.30;;;;;;;-9.56;73.05;101774.66;1817099;79;21740;-77
2020/12/07 01:45:15;;;;;;;22.30;10.40;;;;;;;-9.56;73.10;101778.17;1789423;79;21334;-77
2020/12/07 01:48:22;;;;;;;19.52;8.48;;;;;;;-9.54;73.14;101782.16;1798350;79;21181;-77
2020/12/07 01:51:30;;;;;;;17.90;9.25;;;;;;;-9.55;73.11;101765.80;1784515;80;21336;-77
2020/12/07 01:54:38;;;;;;;31.70;12.28;;;;;;;-9.54;73.04;101772.44;1784551;80;21328;-77
2020/12/07 01:57:46;;;;;;;21.48;9.30;;;;;;;-9.52;72.98;101774.61;1768597;80;21321;-77
2020/12/07 02:00:52;;;;;;;28.00;11.65;;;;;;;-9.52;72.98;101765.34;1770691;81;21305;-78
2020/12/07 02:03:59;;;;;;;24.87;10.30;;;;;;;-9.52;72.96;101775.94;1771364;81;21289;-79
2020/12/07 02:07:05;;;;;;;26.90;10.35;;;;;;;-9.49;72.99;101766.22;1771369;81;21298;-78
2020/12/07 02:10:13;;;;;;;18.40;8.05;;;;;;;-9.49;72.97;101753.84;1770422;81;21714;-79
2020/12/07 02:13:18;;;;;;;26.30;10.18;;;;;;;-9.55;73.12;101753.47;1771206;81;21365;-79
2020/12/07 02:16:25;;;;;;;18.10;9.40;;;;;;;-9.57;73.27;101764.95;1770013;81;21246;-78
2020/12/07 02:19:25;;;;;;;24.70;9.40;;;;;;;-9.59;73.31;101757.03;1790848;79;21279;-79
2020/12/07 02:22:31;;;;;;;20.68;10.32;;;;;;;-9.60;73.34;101748.63;1802946;79;21326;-79
2020/12/07 02:25:40;;;;;;;25.10;10.78;;;;;;;-9.59;73.42;101748.21;1800121;79;21220;-78
2020/12/07 02:28:47;;;;;;;20.88;9.05;;;;;;;-9.60;73.56;101751.73;1802977;79;21834;-78
2020/12/07 02:31:55;;;;;;;21.30;10.82;;;;;;;-9.60;73.60;101761.00;1801785;79;21327;-78
2020/12/07 02:35:01;;;;;;;25.05;9.23;;;;;;;-9.60;73.67;101760.55;1803048;79;21228;-79
2020/12/07 02:38:08;;;;;;;23.12;9.25;;;;;;;-9.59;73.71;101767.62;1801804;79;21318;-79
2020/12/07 02:41:15;;;;;;;27.30;9.05;;;;;;;-9.57;73.65;101744.64;1802054;79;21838;-78
2020/12/07 02:44:23;;;;;;;25.00;8.40;;;;;;;-9.56;73.68;101764.93;1801529;79;21636;-78
2020/12/07 02:47:31;;;;;;;27.77;8.43;;;;;;;-9.56;73.71;101769.35;1794021;79;21820;-78
2020/12/07 02:50:36;;;;;;;24.52;9.28;;;;;;;-9.58;73.74;101759.23;1771171;81;21225;-78
2020/12/07 02:53:42;;;;;;;21.65;6.78;;;;;;;-9.59;73.82;101764.98;1771406;81;21859;-78
2020/12/07 02:56:46;;;;;;;19.37;8.40;;;;;;;-9.59;73.92;101754.83;1771327;80;21738;-78
2020/12/07 02:59:54;;;;;;;31.87;11.65;;;;;;;-9.60;74.00;101775.56;1783711;80;21185;-78
2020/12/07 03:03:01;;;;;;;19.27;9.65;;;;;;;-9.61;74.05;101765.42;1775715;80;21830;-79
2020/12/07 03:06:09;;;;;;;15.20;8.95;;;;;;;-9.58;74.05;101769.37;1764445;81;21167;-79
2020/12/07 03:09:17;;;;;;;21.45;8.13;;;;;;;-9.58;74.10;101766.73;1764478;81;21349;-78
2020/12/07 03:12:24;;;;;;;20.97;9.30;;;;;;;-9.56;74.14;101764.93;1763439;81;21329;-79
2020/12/07 03:15:31;;;;;;;23.25;8.58;;;;;;;-9.55;74.18;101758.77;1763004;81;21195;-78
2020/12/07 03:18:39;;;;;;;25.43;10.13;;;;;;;-9.53;74.19;101758.30;1768154;80;21328;-78
2020/12/07 03:21:46;;;;;;;21.75;8.90;;;;;;;-9.49;74.19;101754.30;1784774;80;21232;-78
2020/12/07 03:24:54;;;;;;;15.48;7.40;;;;;;;-9.47;74.16;101760.00;1785036;80;21177;-78
2020/12/07 03:28:01;;;;;;;21.02;8.85;;;;;;;-9.45;74.10;101748.96;1785184;80;21287;-78
2020/12/07 03:31:09;;;;;;;24.40;8.78;;;;;;;-9.44;73.99;101757.33;1783746;80;21173;-78
2020/12/07 03:34:17;;;;;;;18.67;9.55;;;;;;;-9.42;74.00;101750.68;1763868;80;21488;-78
2020/12/07 03:37:23;;;;;;;16.90;8.48;;;;;;;-9.43;74.00;101778.08;1763925;81;21324;-78
2020/12/07 03:40:29;;;;;;;19.90;9.58;;;;;;;-9.43;73.97;101742.31;1764369;81;21286;-78
2020/12/07 03:43:37;;;;;;;17.82;8.05;;;;;;;-9.43;73.94;101724.64;1762830;81;21293;-78
2020/12/07 03:46:44;;;;;;;26.00;9.33;;;;;;;-9.42;73.87;101726.84;1764333;81;21289;-78
2020/12/07 03:49:51;;;;;;;19.92;8.68;;;;;;;-9.40;73.74;101760.39;1764402;80;21286;-78
2020/12/07 03:52:58;;;;;;;24.70;8.35;;;;;;;-9.41;73.63;101757.31;1763289;81;21215;-78
2020/12/07 03:56:05;;;;;;;21.07;8.25;;;;;;;-9.42;73.62;101746.26;1764283;81;21328;-78
2020/12/07 03:59:10;;;;;;;16.57;7.45;;;;;;;-9.44;73.64;101748.05;1766589;81;21328;-78
2020/12/07 04:02:17;;;;;;;30.02;9.58;;;;;;;-9.44;73.64;101737.91;1775118;79;21321;-78
2020/12/07 04:05:30;;;;;;;21.05;7.65;;;;;;;-9.48;73.71;101725.58;1772303;79;21276;-78
2020/12/07 04:08:32;;;;;;;;;;;;;;;-9.49;73.74;101738.41;1773956;81;21303;-78
2020/12/07 04:11:37;;;;;;;14.73;6.85;;;;;;;-9.48;73.77;101744.12;1770969;81;20331;-78
2020/12/07 04:14:43;;;;;;;27.90;7.83;;;;;;;-9.46;73.78;101758.22;1771370;81;21161;-77
2020/12/07 04:17:49;;;;;;;18.05;7.95;;;;;;;-9.45;73.73;101756.03;1771415;81;21273;-77
2020/12/07 04:20:54;;;;;;;15.88;6.37;;;;;;;-9.47;73.83;101737.93;1771427;81;21332;-77
2020/12/07 04:24:01;;;;;;;14.68;6.35;;;;;;;-9.49;73.82;101755.17;1770098;81;21179;-77
2020/12/07 04:27:06;;;;;;;18.62;7.53;;;;;;;-9.52;73.89;101773.28;1770922;81;21534;-77
2020/12/07 04:30:12;;;;;;;12.93;6.95;;;;;;;-9.54;73.92;101744.63;1771419;81;21488;-77
2020/12/07 04:33:18;;;;;;;20.65;8.25;;;;;;;-9.54;73.96;101730.05;1770320;81;21307;-77
2020/12/07 04:36:25;;;;;;;18.02;6.95;;;;;;;-9.53;73.97;101737.09;1771184;81;21280;-78
2020/12/07 04:39:32;;;;;;;23.90;9.35;;;;;;;-9.54;74.04;101723.43;1771306;81;21284;-78
2020/12/07 04:42:38;;;;;;;17.57;7.75;;;;;;;-9.54;74.08;101734.02;1770491;81;21324;-78
2020/12/07 04:45:44;;;;;;;16.85;7.60;;;;;;;-9.55;73.94;101728.30;1772202;81;21260;-78
2020/12/07 04:48:49;;;;;;;17.45;8.98;;;;;;;-9.53;73.90;101763.59;1771269;81;21177;-78
2020/12/07 04:51:55;;;;;;;21.23;8.45;;;;;;;-9.51;73.88;101755.62;1774840;79;21276;-77
2020/12/07 04:55:01;;;;;;;20.92;10.20;;;;;;;-9.50;73.74;101750.78;1783769;79;21834;-78
2020/12/07 04:58:08;;;;;;;20.92;8.93;;;;;;;-9.50;73.59;101751.19;1801518;79;21312;-77
2020/12/07 05:01:13;;;;;;;25.57;10.10;;;;;;;-9.52;73.60;101738.84;1789082;80;21293;-78
2020/12/07 05:04:18;;;;;;;20.77;9.48;;;;;;;-9.54;73.63;101734.47;1775406;80;21190;-78
2020/12/07 05:07:24;;;;;;;15.43;6.78;;;;;;;-9.55;73.64;101733.59;1776764;81;22504;-78
2020/12/07 05:10:37;;;;;;;22.93;8.65;;;;;;;-9.57;73.74;101737.14;1776834;81;21325;-78
2020/12/07 05:13:52;;;;;;;23.20;9.70;;;;;;;-9.60;73.77;101746.42;1775875;81;21940;-78
2020/12/07 05:16:53;;;;;;;21.07;8.53;;;;;;;-9.58;73.75;101759.23;1776879;81;21300;-78
2020/12/07 05:19:59;;;;;;;21.68;10.13;;;;;;;-9.53;73.70;101742.84;1775549;80;21295;-78
2020/12/07 05:23:05;;;;;;;16.07;7.20;;;;;;;-9.50;73.56;101745.89;1750307;80;21815;-78
2020/12/07 05:26:11;;;;;;;17.73;8.28;;;;;;;-9.47;73.43;101745.87;1786599;80;21282;-79
2020/12/07 05:29:20;;;;;;;17.98;7.87;;;;;;;-9.47;73.29;101742.77;1744583;82;21903;-79
2020/12/07 05:32:24;;;;;;;18.52;9.00;;;;;;;-9.46;73.16;101748.95;1766349;80;21284;-80
2020/12/07 05:35:30;;;;;;;22.93;8.23;;;;;;;-9.47;73.11;101745.87;1772008;80;21296;-79
2020/12/07 05:38:39;;;;;;;17.20;8.35;;;;;;;-9.50;73.10;101742.83;1740507;80;22791;-79
2020/12/07 05:41:45;;;;;;;14.25;7.75;;;;;;;-9.47;73.01;101722.91;1766817;79;21274;-77
2020/12/07 05:44:51;;;;;;;23.20;10.48;;;;;;;-9.40;72.89;101739.64;1773384;80;21345;-77
2020/12/07 05:47:59;;;;;;;26.82;9.00;;;;;;;-9.40;72.80;101740.97;1769107;80;21817;-77
2020/12/07 05:51:12;;;;;;;22.52;9.40;;;;;;;-9.42;72.93;101729.03;1773644;80;21137;-78
2020/12/07 05:54:18;;;;;;;19.92;7.70;;;;;;;-9.40;73.04;101712.69;1760644;80;21854;-78
2020/12/07 05:57:28;;;;;;;18.90;8.18;;;;;;;-9.37;72.87;101697.19;1763748;80;21285;-78
2020/12/07 06:00:33;;;;;;;18.90;7.80;;;;;;;-9.34;72.58;101694.52;1772030;79;21291;-78
2020/12/07 06:03:42;;;;;;;16.32;8.05;;;;;;;-9.28;72.43;101704.59;1788160;79;21267;-78
2020/12/07 06:06:48;;;;;;;21.33;8.58;;;;;;;-9.24;72.27;101708.09;1787801;79;21217;-78
2020/12/07 06:09:54;;;;;;;21.73;9.18;;;;;;;-9.17;72.07;101702.26;1769378;79;21282;-80
2020/12/07 06:13:01;;;;;;;17.07;9.00;;;;;;;-9.11;71.92;101720.31;1789325;79;21141;-79
2020/12/07 06:16:11;;;;;;;17.80;8.63;;;;;;;-8.99;71.56;101724.58;1787443;79;21299;-79
2020/12/07 06:19:25;;;;;;;15.47;6.37;;;;;;;-8.92;71.16;101718.33;1787937;79;21329;-80
2020/12/07 06:22:30;;;;;;;23.12;9.40;;;;;;;-8.85;71.04;101717.78;1782474;79;21279;-78
2020/12/07 06:26:01;;;;;;;17.80;7.97;;;;;;;-8.83;70.85;101723.52;1784892;79;21176;-79
2020/12/07 06:33:05;;;;;;;17.98;7.55;;;;;;;-8.66;70.50;101701.18;1761123;79;21196;-80
2020/12/07 06:37:01;;;;;;;16.27;6.17;;;;;;;-8.58;70.15;101684.72;1767745;79;21803;-80
2020/12/07 06:40:55;;;;;;;;;;;;;;;;;;;;;
2020/12/07 06:59:20;;;;;;;;;;;;;;;;;;;;;
2020/12/07 07:03:02;;;;;;;23.45;8.93;;;;;;;-8.20;69.51;101682.77;1771084;78;21292;-80
2020/12/07 07:37:59;;;;;;;17.77;7.67;;;;;;;-7.02;65.74;101709.43;1778256;78;21295;-79
2020/12/07 07:41:23;;;;;;;16.75;7.85;;;;;;;-6.96;65.37;101721.30;1710777;81;22012;-79
2020/12/07 07:48:51;;;;;;;16.97;8.20;;;;;;;-6.79;65.21;101717.41;1713019;81;21385;-78
2020/12/07 08:15:48;;;;;;;23.27;11.25;;;;;;;-6.15;64.12;101664.05;1701465;82;21644;-77
2020/12/07 08:18:58;;;;;;;30.10;13.48;;;;;;;-6.07;64.14;101626.55;1773155;78;21752;-78
2020/12/07 08:22:26;;;;;;;21.33;9.13;;;;;;;-6.02;64.24;101640.19;1768921;79;21183;-77
2020/12/07 08:25:57;;;;;;;36.85;25.97;;;;;;;-5.93;64.03;101662.61;1770206;79;21727;-77
2020/12/07 08:29:08;;;;;;;18.07;8.80;;;;;;;-5.83;63.88;101648.98;1770787;79;21374;-78
2020/12/07 08:32:28;;;;;;;23.40;10.63;;;;;;;-5.73;63.51;101655.39;1765781;79;21427;-79
2020/12/07 08:35:37;;;;;;;26.20;12.18;;;;;;;-5.66;63.34;101664.09;1768060;79;21670;-78
2020/12/07 08:38:47;;;;;;;24.50;11.00;;;;;;;-5.57;62.66;101669.18;1768589;79;21207;-77
2020/12/07 08:41:52;;;;;;;23.57;14.30;;;;;;;-5.52;62.88;101667.73;1769634;79;21353;-77
2020/12/07 08:45:04;;;;;;;21.33;10.88;;;;;;;-5.48;62.94;101643.61;1767236;79;21251;-78
2020/12/07 08:48:12;;;;;;;28.38;16.30;;;;;;;-5.35;63.24;101644.61;1765779;79;21314;-77
2020/12/07 08:51:25;;;;;;;24.92;11.03;;;;;;;-5.29;62.76;101679.98;1708946;82;21333;-77
2020/12/07 08:54:33;;;;;;;30.88;16.57;;;;;;;-5.28;62.66;101670.17;1708478;82;21196;-78
2020/12/07 08:57:38;;;;;;;26.82;12.40;;;;;;;-5.23;62.68;101665.59;1710446;83;21700;-78
2020/12/07 09:00:47;;;;;;;25.72;13.75;;;;;;;-5.18;62.72;101656.53;1708147;82;21295;-78
2020/12/07 09:03:54;;;;;;;12.73;7.80;;;;;;;-5.10;62.79;101688.80;1713616;82;21382;-77
2020/12/07 09:07:03;;;;;;;20.95;8.98;;;;;;;-5.02;62.47;101642.31;1774224;79;21875;-77
2020/12/07 09:10:10;;;;;;;24.10;13.85;;;;;;;-4.93;62.95;101646.05;1766134;79;21167;-77
2020/12/07 09:13:18;;;;;;;31.97;20.60;;;;;;;-4.78;63.17;101666.53;1770797;79;21341;-78
2020/12/07 09:16:25;;;;;;;32.55;14.47;;;;;;;-4.67;62.87;101643.03;1771136;79;21646;-78
2020/12/07 09:19:37;;;;;;;29.42;17.07;;;;;;;-4.58;62.54;101646.77;1773021;79;21302;-77
2020/12/07 09:22:46;;;;;;;25.02;12.15;;;;;;;-4.50;62.10;101642.53;1767800;79;21940;-77
2020/12/07 09:26:10;;;;;;;;;;;;;;;;;;;;;
2020/12/07 09:29:15;;;;;;;26.45;12.50;;;;;;;-4.38;62.14;101640.32;1761531;79;21332;-78
2020/12/07 09:32:23;;;;;;;21.97;12.13;;;;;;;-4.30;62.60;101624.52;1768163;79;22286;-77
2020/12/07 09:35:35;;;;;;;37.48;26.82;;;;;;;-4.23;62.42;101613.59;1772501;79;21250;-78
2020/12/07 09:38:41;;;;;;;22.20;9.53;;;;;;;-4.17;62.38;101613.85;1769659;79;21458;-77
2020/12/07 09:41:50;;;;;;;52.50;33.50;;;;;;;-4.15;62.19;101631.56;1713902;79;21815;-77
2020/12/07 09:44:59;;;;;;;20.12;11.68;;;;;;;-4.11;62.46;101616.31;1720011;79;21215;-76
2020/12/07 09:48:10;;;;;;;23.85;9.78;;;;;;;-3.99;62.52;101621.26;1774909;79;21302;-78
2020/12/07 09:51:15;;;;;;;21.23;11.60;;;;;;;-3.89;61.93;101609.78;1781762;79;21754;-77
2020/12/07 09:54:25;;;;;;;39.42;20.23;;;;;;;-3.85;61.58;101608.77;1775392;79;21876;-78
2020/12/07 09:57:31;;;;;;;29.43;19.00;;;;;;;-3.86;61.55;101623.93;1768514;79;21298;-78
2020/12/07 10:00:42;;;;;;;25.97;15.18;;;;;;;-3.83;61.64;101612.23;1774943;79;21888;-76
2020/12/07 10:03:48;;;;;;;29.82;16.12;;;;;;;-3.75;61.78;101625.36;1761744;79;21175;-77
2020/12/07 10:06:56;;;;;;;24.85;14.00;;;;;;;-3.69;61.32;101606.41;1775296;79;21191;-77
2020/12/07 10:10:05;;;;;;;24.18;12.85;;;;;;;-3.64;61.19;101611.12;1764919;79;21905;-79
2020/12/07 10:13:13;;;;;;;22.02;12.15;;;;;;;-3.55;61.15;101604.13;1771059;79;21322;-78
2020/12/07 10:16:18;;;;;;;15.50;7.12;;;;;;;-3.42;60.49;101614.80;1765095;79;21354;-78
2020/12/07 10:19:25;;;;;;;21.52;11.88;;;;;;;-3.33;59.75;101604.22;1766572;79;21309;-78
2020/12/07 10:22:30;;;;;;;44.00;25.55;;;;;;;-3.27;59.63;101612.02;1779057;79;21302;-78
2020/12/07 10:25:38;;;;;;;23.90;8.85;;;;;;;-3.20;58.94;101613.55;1771253;79;21354;-79
2020/12/07 10:28:50;;;;;;;16.20;6.90;;;;;;;-3.19;58.02;101605.05;1771973;79;21407;-78
2020/12/07 10:31:58;;;;;;;16.07;6.05;;;;;;;-3.17;57.50;101609.87;1773927;78;21276;-77
2020/12/07 10:35:05;;;;;;;42.40;33.88;;;;;;;-3.18;55.85;101592.95;1770112;79;21323;-77
2020/12/07 10:38:17;;;;;;;14.13;8.75;;;;;;;-3.18;55.21;101596.09;1772680;79;21353;-78
2020/12/07 10:41:24;;;;;;;24.05;9.13;;;;;;;-3.18;54.83;101597.42;1768947;79;21290;-77
2020/12/07 10:44:31;;;;;;;22.40;13.80;;;;;;;-3.16;55.09;101593.75;1769485;79;21916;-77
2020/12/07 10:47:38;;;;;;;22.73;13.95;;;;;;;-3.10;54.17;101586.84;1774747;79;21816;-77
2020/12/07 10:50:44;;;;;;;19.30;13.48;;;;;;;-3.05;53.47;101578.64;1771883;79;21351;-77
2020/12/07 10:53:50;;;;;;;23.22;12.45;;;;;;;-3.03;53.37;101575.89;1776553;79;21884;-77
2020/12/07 10:56:59;;;;;;;18.80;8.45;;;;;;;-2.98;53.39;101586.83;1772681;79;21349;-78
2020/12/07 11:00:07;;;;;;;17.10;6.75;;;;;;;-2.94;53.23;101606.33;1773948;79;21216;-77
2020/12/07 11:03:12;;;;;;;30.72;23.75;;;;;;;-2.92;52.74;101584.38;1768986;79;21294;-78
2020/12/07 11:06:31;;;;;;;10.20;7.25;;;;;;;-2.95;52.89;101588.53;1766369;79;21290;-77
2020/12/07 11:09:36;;;;;;;14.53;6.90;;;;;;;-2.97;53.14;101588.56;1707334;82;21342;-77
2020/12/07 11:12:44;;;;;;;20.52;12.75;;;;;;;-2.94;53.23;101580.42;1772972;79;21171;-77
2020/12/07 11:15:51;;;;;;;18.45;10.32;;;;;;;-2.96;52.87;101574.27;1774269;79;21267;-78
2020/12/07 11:18:57;;;;;;;20.45;10.80;;;;;;;-2.97;52.82;101567.62;1767342;79;21180;-79
2020/12/07 11:22:03;;;;;;;19.23;10.78;;;;;;;-3.02;52.35;101570.94;1764953;79;21204;-76
2020/12/07 11:25:21;;;;;;;20.08;13.85;;;;;;;-3.03;52.84;101561.17;1768321;79;21380;-78
2020/12/07 11:28:33;;;;;;;16.10;9.15;;;;;;;-3.01;53.22;101576.26;1739898;79;22447;-78
2020/12/07 11:31:38;;;;;;;26.15;11.60;;;;;;;-2.98;52.81;101585.48;1774616;79;21183;-77
2020/12/07 11:34:43;;;;;;;16.80;8.33;;;;;;;-2.96;52.78;101568.92;1768928;79;21774;-77
2020/12/07 11:37:55;;;;;;;18.75;11.28;;;;;;;-2.90;52.93;101567.80;1764746;79;21598;-76
2020/12/07 11:44:22;;;;;;;24.20;14.83;;;;;;;-2.90;52.13;101599.47;1733393;79;21609;-77
2020/12/07 11:47:35;;;;;;;23.60;12.10;;;;;;;-2.92;52.21;101596.42;1765636;79;21591;-77
2020/12/07 11:50:48;;;;;;;25.37;17.12;;;;;;;-2.92;52.21;101596.42;1767129;79;21610;-79
2020/12/07 11:53:58;;;;;;;28.05;18.67;;;;;;;-2.92;52.19;101597.29;1770895;79;21826;-77
2020/12/07 11:57:12;;;;;;;18.17;12.50;;;;;;;-2.94;51.71;101591.14;1768645;79;21349;-76
2020/12/07 12:00:23;;;;;;;17.57;7.72;;;;;;;-2.95;52.08;101585.38;1769030;79;21877;-76
2020/12/07 12:03:40;;;;;;;23.83;6.35;;;;;;;-2.92;52.26;101595.95;1769674;79;21309;-78
2020/12/07 12:08:00;;;;;;;;;;;;;;;;;;;;;
2020/12/07 12:11:13;;;;;;;15.38;8.40;;;;;;;-2.94;51.30;101591.61;1580128;88;21900;-78
2020/12/07 12:18:00;;;;;;;17.52;8.48;;;;;;;-3.03;50.95;101586.60;1843389;76;22842;-78
2020/12/07 12:21:05;;;;;;;16.75;7.47;;;;;;;-3.10;51.16;101604.25;1819283;77;21271;-78
2020/12/07 12:24:11;;;;;;;45.65;10.38;;;;;;;-3.11;51.04;101609.63;1819789;77;21361;-79
2020/12/07 12:27:17;;;;;;;17.98;7.95;;;;;;;-3.12;50.89;101614.59;1817539;77;21375;-77
2020/12/07 12:30:26;;;;;;;21.73;14.93;;;;;;;-3.12;51.20;101615.92;1817817;77;21279;-78
2020/12/07 12:33:34;;;;;;;27.53;7.27;;;;;;;-3.19;50.85;101610.41;1819723;77;21203;-79
2020/12/07 12:36:46;;;;;;;38.75;10.45;;;;;;;-3.23;51.25;101599.41;1814775;77;21711;-78
2020/12/07 12:39:50;;;;;;;19.90;10.25;;;;;;;-3.27;51.39;101602.66;1794379;79;21373;-78
2020/12/07 12:42:56;;;;;;;14.33;7.30;;;;;;;-3.26;51.39;101620.91;1794461;78;22447;-78
2020/12/07 12:46:02;;;;;;;19.02;6.58;;;;;;;-3.29;51.37;101607.20;1790780;78;21421;-78
2020/12/07 12:49:07;;;;;;;16.80;5.75;;;;;;;-3.33;51.41;101602.02;1795069;78;21294;-77
2020/12/07 12:52:34;;;;;;;18.35;9.60;;;;;;;-3.40;51.57;101631.66;1792390;78;21330;-77
2020/12/07 12:55:37;;;;;;;25.48;6.62;;;;;;;-3.46;51.90;101605.12;1788367;78;21196;-77
2020/12/07 12:58:47;;;;;;;22.48;12.00;;;;;;;-3.50;52.02;101615.52;1789504;79;21719;-78
2020/12/07 13:01:52;;;;;;;16.15;10.08;;;;;;;-3.51;52.36;101593.72;1795291;78;21180;-77
2020/12/07 13:05:08;;;;;;;38.85;14.53;;;;;;;-3.53;52.67;101613.42;1790499;79;21624;-77
2020/12/07 13:08:28;;;;;;;16.90;6.70;;;;;;;-3.62;52.31;101609.30;1684249;78;21291;-77
2020/12/07 13:11:40;;;;;;;12.82;9.33;;;;;;;-3.69;52.65;101602.41;1792157;79;21194;-78
2020/12/07 13:14:45;;;;;;;14.65;6.62;;;;;;;-3.73;52.29;101604.77;1796562;78;22489;-78
2020/12/07 13:17:57;;;;;;;26.17;12.18;;;;;;;-3.77;52.54;101621.84;1782211;78;21311;-78
2020/12/07 13:21:11;;;;;;;19.48;8.05;;;;;;;-3.82;52.94;101604.62;1764798;80;21267;-78
2020/12/07 13:24:30;;;;;;;22.27;7.87;;;;;;;-3.87;53.47;101599.90;1763554;80;21430;-78
2020/12/07 13:27:44;;;;;;;15.00;6.97;;;;;;;-3.90;53.85;101611.59;1761544;80;21312;-78
2020/12/07 13:30:47;;;;;;;22.55;7.08;;;;;;;-3.95;53.59;101596.61;1767614;80;22028;-78
2020/12/07 13:33:56;;;;;;;15.30;7.33;;;;;;;-4.00;53.41;101607.48;1760311;80;21235;-77
2020/12/07 13:37:06;;;;;;;23.52;10.75;;;;;;;-4.06;53.65;101606.80;1769333;80;21496;-79
2020/12/07 13:40:14;;;;;;;28.90;11.97;;;;;;;-4.11;54.14;101618.52;1765040;80;21275;-77
2020/12/07 13:43:24;;;;;;;18.15;8.18;;;;;;;-4.16;54.28;101619.60;1757287;80;21314;-79
2020/12/07 13:46:33;;;;;;;19.98;9.43;;;;;;;-4.19;54.37;101607.23;1763175;80;21363;-78
2020/12/07 13:49:45;;;;;;;21.70;11.48;;;;;;;-4.23;54.72;101602.04;1765354;80;21274;-77
2020/12/07 13:52:52;;;;;;;25.57;11.60;;;;;;;-4.26;54.71;101611.48;1761189;80;21326;-78
2020/12/07 13:56:02;;;;;;;13.78;6.83;;;;;;;-4.31;54.78;101618.77;1760501;81;22049;-77
2020/12/07 13:59:10;;;;;;;26.15;9.50;;;;;;;-4.35;54.81;101634.02;1763222;80;21192;-77
2020/12/07 14:02:17;;;;;;;20.40;8.88;;;;;;;-4.38;54.98;101628.30;1765122;80;21316;-77
2020/12/07 14:05:23;;;;;;;19.90;8.88;;;;;;;-4.43;55.11;101622.23;1763372;80;21381;-79
2020/12/07 14:08:31;;;;;;;20.02;9.35;;;;;;;-4.46;55.38;101637.04;1764802;80;21346;-77
2020/12/07 14:11:38;;;;;;;24.18;9.55;;;;;;;-4.49;55.40;101619.77;1760409;80;21343;-78
2020/12/07 14:14:44;;;;;;;32.83;12.07;;;;;;;-4.51;55.47;101602.93;1763790;80;21279;-79
2020/12/07 14:18:02;;;;;;;30.72;11.78;;;;;;;-4.52;55.40;101616.31;1767454;80;21628;-81
2020/12/07 14:21:12;;;;;;;23.38;8.55;;;;;;;-4.54;55.74;101600.34;1781718;78;21243;-78
2020/12/07 14:24:30;;;;;;;17.27;7.75;;;;;;;-4.56;55.57;101603.97;1786269;79;21921;-78
2020/12/07 14:30:56;;;;;;;30.00;9.63;;;;;;;-4.55;55.30;101597.27;1783238;78;21169;-79
2020/12/07 14:40:34;;;;;;;23.83;11.33;;;;;;;-4.71;57.20;101618.22;1781954;79;22314;-79
2020/12/07 14:43:39;;;;;;;25.85;9.83;;;;;;;-4.75;57.53;101605.02;1786041;78;21256;-79
2020/12/07 14:46:46;;;;;;;25.85;11.68;;;;;;;-4.76;57.65;101619.28;1785307;79;22387;-78
2020/12/07 14:50:03;;;;;;;23.75;10.70;;;;;;;-4.80;57.80;101620.30;1787092;79;21198;-78
2020/12/07 14:53:05;;;;;;;27.40;11.70;;;;;;;-4.82;58.19;101623.48;1780078;79;21186;-79
2020/12/07 14:56:16;;;;;;;19.25;8.20;;;;;;;-4.87;58.42;101627.63;1784865;78;21117;-77
2020/12/07 15:02:55;;;;;;;29.00;9.78;;;;;;;-4.96;58.92;101628.78;1779309;78;22122;-77
2020/12/07 15:05:38;;;;;;;25.50;11.30;;;;;;;-5.09;59.23;101630.52;1786777;79;21276;-79
2020/12/07 15:09:34;;;;;;;23.15;9.80;;;;;;;-5.28;59.87;101639.50;1781393;79;21331;-79
2020/12/07 15:12:29;;;;;;;21.33;10.63;;;;;;;-5.41;60.38;101627.87;1778449;79;21173;-79
2020/12/07 15:15:22;;;;;;;29.90;11.60;;;;;;;-5.53;60.92;101621.53;1773060;81;21302;-78
2020/12/07 15:18:29;;;;;;;28.27;10.90;;;;;;;-5.64;61.42;101628.95;1774167;81;21643;-79
2020/12/07 15:21:35;;;;;;;21.42;9.93;;;;;;;-5.72;61.77;101617.61;1778132;80;21311;-78
2020/12/07 15:24:40;;;;;;;25.35;11.40;;;;;;;-5.85;62.23;101619.72;1778403;79;21265;-78
2020/12/07 15:27:47;;;;;;;32.58;11.28;;;;;;;-5.89;62.49;101626.50;1778811;80;21257;-78
2020/12/07 15:30:52;;;;;;;23.80;9.55;;;;;;;-5.95;62.87;101640.89;1779625;80;21720;-78
2020/12/07 15:33:59;;;;;;;29.07;10.93;;;;;;;-6.03;63.17;101633.55;1778139;80;21834;-78
2020/12/07 15:37:04;;;;;;;31.60;12.23;;;;;;;-6.09;63.40;101617.27;1778062;80;21344;-78
2020/12/07 15:40:12;;;;;;;22.58;10.60;;;;;;;-6.14;63.65;101620.97;1778521;80;21277;-78
2020/12/07 15:43:18;;;;;;;31.70;11.80;;;;;;;-6.19;63.89;101633.06;1779562;80;21871;-78
2020/12/07 15:46:34;;;;;;;33.92;10.23;;;;;;;-6.24;64.12;101638.50;1779734;80;21793;-78
2020/12/07 15:49:32;;;;;;;21.25;9.75;;;;;;;-6.25;64.20;101651.87;1778161;80;21193;-78
2020/12/07 15:52:37;;;;;;;22.52;10.32;;;;;;;-6.29;64.39;101639.53;1779380;80;21281;-78
2020/12/07 15:55:43;;;;;;;23.65;11.50;;;;;;;-6.30;64.50;101640.45;1778598;80;21328;-78
2020/12/07 15:58:49;;;;;;;27.05;12.25;;;;;;;-6.34;64.54;101647.63;1777726;80;21801;-79
2020/12/07 16:01:54;;;;;;;30.92;13.38;;;;;;;-6.39;64.75;101643.34;1778079;80;21344;-79
2020/12/07 16:05:00;;;;;;;21.42;11.00;;;;;;;-6.42;64.90;101643.39;1779587;80;21825;-79
2020/12/07 16:08:05;;;;;;;31.97;12.68;;;;;;;-6.44;65.00;101640.78;1779520;80;21824;-78
2020/12/07 16:11:12;;;;;;;31.90;12.53;;;;;;;-6.46;65.22;101643.45;1778455;80;21328;-78